createdAt,value
2023-12-23T00:02:26.963Z,97037.55
2023-12-23T00:04:57.886Z,97035.46
2023-12-23T00:07:28.920Z,97034.64
2023-12-23T00:09:59.692Z,97032.42
2023-12-23T00:12:30.646Z,97034.53
2023-12-23T00:15:01.546Z,97023.12
2023-12-23T00:17:32.806Z,97019.77
2023-12-23T00:20:04.379Z,97009.11
2023-12-23T00:22:35.272Z,97002.45
2023-12-23T00:25:07.437Z,97008.48
2023-12-23T00:27:38.315Z,97011.19
2023-12-23T00:30:13.414Z,97013.12
2023-12-23T00:32:45.979Z,97026.79
2023-12-23T00:35:17.060Z,97026.29
2023-12-23T00:37:48.094Z,97022.19
2023-12-23T00:40:19.233Z,97026.62
2023-12-23T00:42:49.984Z,97036.34
2023-12-23T00:45:20.881Z,97040.92
2023-12-23T00:47:52.126Z,97042.15
2023-12-23T00:50:23.226Z,97052.83
2023-12-23T00:52:54.311Z,97056.70
2023-12-23T00:55:28.383Z,97073.16
2023-12-23T00:57:59.152Z,97078.16
2023-12-23T01:00:30.072Z,97084.77
2023-12-23T01:03:00.953Z,97089.66
2023-12-23T01:05:31.839Z,97099.77
2023-12-23T01:08:02.932Z,97100.86
2023-12-23T01:10:33.874Z,97109.86
2023-12-23T01:13:06.930Z,97109.05
2023-12-23T01:15:37.867Z,97117.88
2023-12-23T01:18:09.211Z,97117.96
2023-12-23T01:20:41.352Z,97108.63
2023-12-23T01:23:12.173Z,97108.88
2023-12-23T01:25:43.957Z,97101.73
2023-12-23T01:28:14.734Z,97102.07
2023-12-23T01:30:45.669Z,97094.23
2023-12-23T01:33:16.691Z,97089.16
2023-12-23T01:35:47.692Z,97082.92
2023-12-23T01:38:18.482Z,97091.02
2023-12-23T01:40:49.598Z,97103.64
2023-12-23T01:43:20.340Z,97112.13
2023-12-23T01:45:51.109Z,97114.80
2023-12-23T01:48:24.086Z,97113.98
2023-12-23T01:50:58.374Z,97128.46
2023-12-23T01:53:30.343Z,97131.75
2023-12-23T01:56:02.601Z,97117.00
2023-12-23T01:58:33.996Z,97116.11
2023-12-23T02:01:05.271Z,97110.21
2023-12-23T02:03:36.644Z,97110.94
2023-12-23T02:06:07.979Z,97121.09
2023-12-23T02:08:38.840Z,97124.73
2023-12-23T02:11:11.987Z,97119.89
2023-12-23T02:13:51.618Z,97121.60
2023-12-23T02:16:22.693Z,97119.40
2023-12-23T02:18:53.474Z,97129.68
2023-12-23T02:21:24.820Z,97139.83
2023-12-23T02:23:55.669Z,97132.26
2023-12-23T02:26:30.288Z,97144.88
2023-12-23T02:29:03.522Z,97147.66
2023-12-23T02:31:36.313Z,97150.02
2023-12-23T02:34:07.486Z,97155.99
2023-12-23T02:36:38.418Z,97155.63
2023-12-23T02:39:10.950Z,97150.36
2023-12-23T02:41:43.071Z,97157.80
2023-12-23T02:44:13.984Z,97159.82
2023-12-23T02:46:45.090Z,97163.02
2023-12-23T02:49:15.989Z,97171.78
2023-12-23T02:51:46.754Z,97167.96
2023-12-23T02:54:17.437Z,97172.73
2023-12-23T02:56:48.159Z,97171.56
2023-12-23T02:59:18.980Z,97168.21
2023-12-23T03:01:49.842Z,97189.38
2023-12-23T03:04:20.695Z,97203.58
2023-12-23T03:06:51.585Z,97203.93
2023-12-23T03:09:22.988Z,97213.39
2023-12-23T03:11:54.163Z,97213.58
2023-12-23T03:14:25.196Z,97219.27
2023-12-23T03:16:56.444Z,97228.59
2023-12-23T03:19:28.013Z,97239.30
2023-12-23T03:21:58.823Z,97247.00
2023-12-23T03:24:29.537Z,97263.11
2023-12-23T03:27:00.314Z,97261.41
2023-12-23T03:29:31.171Z,97270.33
2023-12-23T03:32:02.074Z,97283.57
2023-12-23T03:34:32.991Z,97298.55
2023-12-23T03:37:04.016Z,97302.91
2023-12-23T03:39:34.796Z,97311.81
2023-12-23T03:42:05.977Z,97314.23
2023-12-23T03:44:36.875Z,97324.04
2023-12-23T03:47:09.041Z,97331.65
2023-12-23T03:49:39.865Z,97337.58
2023-12-23T03:52:10.889Z,97339.59
2023-12-23T03:54:41.644Z,97348.59
2023-12-23T03:57:12.402Z,97347.89
2023-12-23T03:59:43.501Z,97353.10
2023-12-23T04:02:14.315Z,97353.77
2023-12-23T04:04:45.370Z,97370.02
2023-12-23T04:07:16.157Z,97376.60
2023-12-23T04:09:47.144Z,97385.77
2023-12-23T04:12:18.159Z,97397.73
2023-12-23T04:14:49.059Z,97409.20
2023-12-23T04:17:19.875Z,97416.50
2023-12-23T04:19:51.673Z,97424.27
2023-12-23T04:22:22.522Z,97443.39
2023-12-23T04:24:53.258Z,97452.42
2023-12-23T04:27:24.288Z,97455.85
2023-12-23T04:29:55.120Z,97454.61
2023-12-23T04:32:25.994Z,97462.48
2023-12-23T04:34:57.744Z,97465.80
2023-12-23T04:37:28.754Z,97465.83
2023-12-23T04:39:59.855Z,97460.29
2023-12-23T04:42:30.960Z,97466.69
2023-12-23T04:45:01.827Z,97468.24
2023-12-23T04:47:32.903Z,97465.05
2023-12-23T04:50:04.538Z,97467.36
2023-12-23T04:52:35.467Z,97485.14
2023-12-23T04:55:10.843Z,97494.65
2023-12-23T04:57:42.384Z,97499.38
2023-12-23T05:00:15.038Z,97508.17
2023-12-23T05:02:45.979Z,97518.80
2023-12-23T05:05:17.106Z,97519.39
2023-12-23T05:07:49.858Z,97526.08
2023-12-23T05:10:22.627Z,97532.30
2023-12-23T05:12:53.697Z,97535.88
2023-12-23T05:15:24.680Z,97548.50
2023-12-23T05:17:55.687Z,97551.76
2023-12-23T05:20:26.826Z,97551.23
2023-12-23T05:22:57.608Z,97557.91
2023-12-23T05:25:28.501Z,97566.41
2023-12-23T05:27:59.250Z,97574.95
2023-12-23T05:30:30.696Z,97578.98
2023-12-23T05:33:01.688Z,97587.59
2023-12-23T05:35:32.907Z,97598.66
2023-12-23T05:38:04.831Z,97605.82
2023-12-23T05:40:35.992Z,97610.77
2023-12-23T05:43:07.282Z,97615.48
2023-12-23T05:45:38.478Z,97626.32
2023-12-23T05:48:10.680Z,97628.81
2023-12-23T05:50:41.684Z,97634.26
2023-12-23T05:53:12.570Z,97639.27
2023-12-23T05:55:43.934Z,97637.48
2023-12-23T05:58:15.115Z,97643.45
2023-12-23T06:00:46.574Z,97642.23
2023-12-23T06:03:17.498Z,97652.99
2023-12-23T06:05:48.621Z,97654.72
2023-12-23T06:08:19.662Z,97666.45
2023-12-23T06:10:57.521Z,97667.55
2023-12-23T06:13:29.890Z,97671.42
2023-12-23T06:16:06.131Z,97676.43
2023-12-23T06:18:37.146Z,97679.39
2023-12-23T06:21:08.727Z,97679.30
2023-12-23T06:23:39.424Z,97688.54
2023-12-23T06:26:11.791Z,97694.80
2023-12-23T06:28:42.548Z,97689.77
2023-12-23T06:31:13.413Z,97689.10
2023-12-23T06:33:44.541Z,97688.38
2023-12-23T06:36:15.400Z,97685.48
2023-12-23T06:38:46.485Z,97685.55
2023-12-23T06:41:17.564Z,97690.29
2023-12-23T06:43:52.685Z,97693.73
2023-12-23T06:46:24.804Z,97698.59
2023-12-23T06:48:56.043Z,97696.88
2023-12-23T06:51:27.220Z,97698.81
2023-12-23T06:53:59.163Z,97703.83
2023-12-23T06:56:29.976Z,97708.71
2023-12-23T06:59:02.617Z,97709.51
2023-12-23T07:01:40.381Z,97718.46
2023-12-23T07:04:12.950Z,97716.55
2023-12-23T07:06:44.106Z,97710.42
2023-12-23T07:09:15.364Z,97713.52
2023-12-23T07:11:47.449Z,97714.23
2023-12-23T07:14:18.650Z,97710.42
2023-12-23T07:16:49.531Z,97706.61
2023-12-23T07:19:21.137Z,97702.00
2023-12-23T07:21:54.792Z,97698.02
2023-12-23T07:24:25.925Z,97698.05
2023-12-23T07:26:56.963Z,97700.34
2023-12-23T07:29:28.133Z,97694.45
2023-12-23T07:31:59.522Z,97693.95
2023-12-23T07:34:30.531Z,97693.55
2023-12-23T07:37:01.433Z,97692.86
2023-12-23T07:39:32.298Z,97698.73
2023-12-23T07:42:04.223Z,97697.77
2023-12-23T07:44:38.086Z,97699.41
2023-12-23T07:47:11.537Z,97696.26
2023-12-23T07:49:42.584Z,97707.10
2023-12-23T07:52:13.668Z,97702.42
2023-12-23T07:54:44.965Z,97695.58
2023-12-23T07:57:15.977Z,97688.89
2023-12-23T07:59:47.951Z,97689.91
2023-12-23T08:02:19.201Z,97686.22
2023-12-23T08:04:50.636Z,97689.12
2023-12-23T08:07:22.202Z,97682.77
2023-12-23T08:09:53.004Z,97684.41
2023-12-23T08:12:23.824Z,97676.53
2023-12-23T08:14:54.896Z,97673.20
2023-12-23T08:17:26.045Z,97671.05
2023-12-23T08:19:57.081Z,97664.38
2023-12-23T08:22:28.244Z,97663.64
2023-12-23T08:24:59.319Z,97659.41
2023-12-23T08:27:30.226Z,97655.36
2023-12-23T08:30:01.281Z,97664.61
2023-12-23T08:32:32.349Z,97666.46
2023-12-23T08:35:03.698Z,97666.33
2023-12-23T08:37:34.877Z,97669.70
2023-12-23T08:40:06.466Z,97670.15
2023-12-23T08:42:38.024Z,97660.20
2023-12-23T08:45:10.631Z,97659.77
2023-12-23T08:47:41.653Z,97660.30
2023-12-23T08:50:13.598Z,97655.52
2023-12-23T08:52:44.817Z,97654.25
2023-12-23T08:55:16.376Z,97652.40
2023-12-23T08:57:47.331Z,97653.65
2023-12-23T09:00:20.992Z,97650.22
2023-12-23T09:02:52.021Z,97650.35
2023-12-23T09:05:23.896Z,97647.38
2023-12-23T09:07:55.801Z,97644.20
2023-12-23T09:10:26.997Z,97640.73
2023-12-23T09:12:57.866Z,97642.38
2023-12-23T09:15:29.209Z,97638.27
2023-12-23T09:18:00.380Z,97626.54
2023-12-23T09:20:31.880Z,97624.15
2023-12-23T09:23:03.314Z,97621.41
2023-12-23T09:25:34.361Z,97619.90
2023-12-23T09:28:06.853Z,97614.23
2023-12-23T09:30:38.062Z,97612.98
2023-12-23T09:33:09.611Z,97609.56
2023-12-23T09:35:40.924Z,97608.84
2023-12-23T09:38:12.427Z,97601.50
2023-12-23T09:40:43.600Z,97584.28
2023-12-23T09:43:16.461Z,97583.10
2023-12-23T09:45:50.051Z,97582.88
2023-12-23T09:48:21.221Z,97576.29
2023-12-23T09:50:52.114Z,97571.73
2023-12-23T09:53:24.570Z,97568.02
2023-12-23T09:55:55.634Z,97554.48
2023-12-23T09:58:26.511Z,97557.42
2023-12-23T10:00:57.510Z,97553.83
2023-12-23T10:03:30.090Z,97545.34
2023-12-23T10:06:03.780Z,97543.66
2023-12-23T10:08:34.835Z,97541.48
2023-12-23T10:11:06.727Z,97536.79
2023-12-23T10:13:38.318Z,97535.92
2023-12-23T10:16:11.129Z,97534.67
2023-12-23T10:18:42.202Z,97529.83
2023-12-23T10:21:13.649Z,97528.81
2023-12-23T10:23:44.792Z,97520.13
2023-12-23T10:26:17.262Z,97517.19
2023-12-23T10:28:56.964Z,97512.83
2023-12-23T10:31:33.645Z,97508.67
2023-12-23T10:34:13.739Z,97509.09
2023-12-23T10:36:44.245Z,97500.15
2023-12-23T10:39:25.152Z,97496.54
2023-12-23T10:42:05.559Z,97489.12
2023-12-23T10:44:38.110Z,97481.30
2023-12-23T10:47:09.986Z,97494.27
2023-12-23T10:49:42.030Z,97495.23
2023-12-23T10:52:14.595Z,97480.43
2023-12-23T10:54:46.452Z,97481.27
2023-12-23T10:57:19.438Z,97483.14
2023-12-23T10:59:51.267Z,97473.56
2023-12-23T11:02:28.772Z,97469.37
2023-12-23T11:05:01.895Z,97456.00
2023-12-23T11:07:35.570Z,97443.60
2023-12-23T11:10:08.840Z,97454.08
2023-12-23T11:12:41.503Z,97447.83
2023-12-23T11:15:14.050Z,97443.74
2023-12-23T11:17:48.401Z,97430.84
2023-12-23T11:20:51.635Z,97427.66
2023-12-23T11:23:36.997Z,97438.49
2023-12-23T11:26:28.618Z,97439.96
2023-12-23T11:29:00.063Z,97427.73
2023-12-23T11:31:32.475Z,97425.06
2023-12-23T11:34:13.762Z,97422.53
2023-12-23T11:36:46.176Z,97421.33
2023-12-23T11:39:20.085Z,97416.23
2023-12-23T11:41:52.167Z,97410.80
2023-12-23T11:44:24.605Z,97416.83
2023-12-23T11:46:58.101Z,97403.34
2023-12-23T11:49:29.320Z,97395.14
2023-12-23T11:52:00.696Z,97397.82
2023-12-23T11:54:32.280Z,97404.01
2023-12-23T11:57:03.658Z,97406.48
2023-12-23T11:59:37.447Z,97413.11
2023-12-23T12:02:10.539Z,97405.86
2023-12-23T12:04:42.053Z,97404.83
2023-12-23T12:07:14.064Z,97400.02
2023-12-23T12:09:45.683Z,97398.35
2023-12-23T12:12:17.135Z,97394.23
2023-12-23T12:14:48.582Z,97384.94
2023-12-23T12:17:19.843Z,97381.91
2023-12-23T12:19:56.320Z,97376.87
2023-12-23T12:22:27.433Z,97381.47
2023-12-23T12:24:58.405Z,97375.43
2023-12-23T12:27:29.503Z,97375.77
2023-12-23T12:30:01.993Z,97373.61
2023-12-23T12:32:33.767Z,97377.20
2023-12-23T12:35:12.243Z,97373.36
2023-12-23T12:37:53.325Z,97378.92
2023-12-23T12:44:07.338Z,97375.78
2023-12-23T12:46:39.182Z,97370.98
2023-12-23T12:49:10.686Z,97364.48
2023-12-23T12:51:42.251Z,97361.10
2023-12-23T12:54:13.406Z,97366.73
2023-12-23T12:56:45.330Z,97366.06
2023-12-23T12:59:16.660Z,97367.85
2023-12-23T13:01:48.194Z,97372.00
2023-12-23T13:04:19.474Z,97369.20
2023-12-23T13:06:50.744Z,97369.64
2023-12-23T13:09:57.532Z,97372.79
2023-12-23T13:12:29.187Z,97380.66
2023-12-23T13:15:00.184Z,97382.69
2023-12-23T13:17:31.788Z,97385.14
2023-12-23T13:20:03.489Z,97386.91
2023-12-23T13:22:34.627Z,97390.19
2023-12-23T13:25:06.778Z,97392.96
2023-12-23T13:27:37.639Z,97395.79
2023-12-23T13:30:11.553Z,97400.66
2023-12-23T13:32:41.425Z,97404.98
2023-12-23T13:35:13.069Z,97406.23
2023-12-23T13:37:44.710Z,97406.45
2023-12-23T13:40:16.219Z,97411.45
2023-12-23T13:42:47.490Z,97412.48
2023-12-23T13:45:18.848Z,97414.08
2023-12-23T13:47:53.759Z,97419.67
2023-12-23T13:50:25.455Z,97416.80
2023-12-23T13:52:56.843Z,97423.99
2023-12-23T13:55:28.213Z,97425.00
2023-12-23T13:57:59.366Z,97430.77
2023-12-23T14:00:32.728Z,97430.46
2023-12-23T14:03:03.930Z,97435.69
2023-12-23T14:05:36.188Z,97441.73
2023-12-23T14:08:09.043Z,97438.46
2023-12-23T14:10:40.206Z,97436.48
2023-12-23T14:13:11.432Z,97440.57
2023-12-23T14:15:42.532Z,97445.48
2023-12-23T14:18:13.482Z,97449.15
2023-12-23T14:20:44.907Z,97456.27
2023-12-23T14:23:16.475Z,97460.53
2023-12-23T14:25:47.618Z,97464.85
2023-12-23T14:28:19.058Z,97469.44
2023-12-23T14:30:50.174Z,97471.95
2023-12-23T14:33:21.792Z,97477.44
2023-12-23T14:35:53.098Z,97483.56
2023-12-23T14:38:24.110Z,97488.98
2023-12-23T14:40:55.384Z,97497.42
2023-12-23T14:43:26.709Z,97501.45
2023-12-23T14:45:57.817Z,97509.64
2023-12-23T14:48:29.032Z,97514.83
2023-12-23T14:51:00.513Z,97521.20
2023-12-23T14:53:31.830Z,97530.22
2023-12-23T14:56:03.097Z,97533.45
2023-12-23T14:58:34.358Z,97536.86
2023-12-23T15:01:05.782Z,97542.33
2023-12-23T15:03:37.101Z,97544.11
2023-12-23T15:06:16.029Z,97554.26
2023-12-23T15:08:47.073Z,97558.77
2023-12-23T15:11:18.353Z,97562.44
2023-12-23T15:13:50.266Z,97567.96
2023-12-23T15:16:21.606Z,97576.31
2023-12-23T15:18:56.097Z,97575.05
2023-12-23T15:21:28.704Z,97584.05
2023-12-23T15:24:00.445Z,97587.64
2023-12-23T15:26:31.672Z,97590.88
2023-12-23T15:29:05.895Z,97594.58
2023-12-23T15:31:36.879Z,97600.36
2023-12-23T15:34:08.125Z,97598.21
2023-12-23T15:36:39.221Z,97603.05
2023-12-23T15:39:10.545Z,97608.61
2023-12-23T15:41:41.631Z,97614.64
2023-12-23T15:44:13.979Z,97619.56
2023-12-23T15:46:45.123Z,97628.25
2023-12-23T15:49:16.837Z,97635.83
2023-12-23T15:51:48.369Z,97648.15
2023-12-23T15:54:19.839Z,97649.51
2023-12-23T15:56:53.021Z,97657.23
2023-12-23T15:59:26.168Z,97666.96
2023-12-23T16:01:57.380Z,97669.17
2023-12-23T16:04:29.657Z,97675.22
2023-12-23T16:07:03.717Z,97682.23
2023-12-23T16:09:36.422Z,97682.28
2023-12-23T16:12:08.665Z,97687.27
2023-12-23T16:14:42.388Z,97689.73
2023-12-23T16:17:16.297Z,97695.55
2023-12-23T16:19:46.552Z,97703.77
2023-12-23T16:22:17.702Z,97709.35
2023-12-23T16:24:48.723Z,97708.67
2023-12-23T16:27:20.884Z,97712.31
2023-12-23T16:29:52.513Z,97716.21
2023-12-23T16:32:26.420Z,97714.23
2023-12-23T16:34:57.918Z,97714.52
2023-12-23T16:37:29.341Z,97722.89
2023-12-23T16:40:00.654Z,97731.96
2023-12-23T16:42:31.798Z,97735.46
2023-12-23T16:45:06.722Z,97733.45
2023-12-23T16:47:37.951Z,97739.10
2023-12-23T16:50:10.628Z,97747.82
2023-12-23T16:52:41.988Z,97746.06
2023-12-23T16:55:14.013Z,97750.98
2023-12-23T16:57:45.193Z,97759.45
2023-12-23T17:00:18.816Z,97768.17
2023-12-23T17:02:50.030Z,97769.96
2023-12-23T17:05:21.559Z,97769.06
2023-12-23T17:07:52.932Z,97773.32
2023-12-23T17:10:24.263Z,97776.89
2023-12-23T17:12:55.457Z,97778.52
2023-12-23T17:15:26.614Z,97775.98
2023-12-23T17:17:58.234Z,97776.31
2023-12-23T17:20:29.421Z,97777.71
2023-12-23T17:23:00.441Z,97780.42
2023-12-23T17:25:34.341Z,97786.95
2023-12-23T17:28:10.398Z,97793.49
2023-12-23T17:30:43.539Z,97798.59
2023-12-23T17:33:18.197Z,97802.70
2023-12-23T17:35:49.581Z,97799.92
2023-12-23T17:38:20.679Z,97803.79
2023-12-23T17:40:51.830Z,97805.33
2023-12-23T17:43:23.064Z,97797.77
2023-12-23T17:45:54.036Z,97801.23
2023-12-23T17:48:25.327Z,97809.48
2023-12-23T17:50:56.891Z,97810.20
2023-12-23T17:53:28.343Z,97812.30
2023-12-23T17:55:59.540Z,97818.90
2023-12-23T17:58:30.709Z,97818.52
2023-12-23T18:01:01.881Z,97827.48
2023-12-23T18:03:33.733Z,97828.39
2023-12-23T18:06:05.219Z,97832.60
2023-12-23T18:08:36.254Z,97836.39
2023-12-23T18:11:08.423Z,97841.95
2023-12-23T18:13:39.600Z,97851.44
2023-12-23T18:16:13.671Z,97853.93
2023-12-23T18:18:45.293Z,97853.11
2023-12-23T18:21:16.942Z,97848.86
2023-12-23T18:23:48.134Z,97851.38
2023-12-23T18:26:19.213Z,97851.61
2023-12-23T18:28:50.602Z,97849.67
2023-12-23T18:31:21.943Z,97846.96
2023-12-23T18:33:55.625Z,97844.56
2023-12-23T18:36:26.850Z,97848.36
2023-12-23T18:38:58.309Z,97845.96
2023-12-23T18:41:29.564Z,97847.81
2023-12-23T18:44:01.922Z,97850.17
2023-12-23T18:46:33.016Z,97847.63
2023-12-23T18:49:04.214Z,97853.29
2023-12-23T18:51:35.771Z,97853.30
2023-12-23T18:54:07.072Z,97853.80
2023-12-23T18:56:39.235Z,97855.17
2023-12-23T18:59:11.433Z,97853.99
2023-12-23T19:01:42.546Z,97857.77
2023-12-23T19:04:13.845Z,97857.14
2023-12-23T19:06:45.953Z,97861.44
2023-12-23T19:09:16.980Z,97857.11
2023-12-23T19:11:48.133Z,97849.41
2023-12-23T19:14:20.204Z,97857.00
2023-12-23T19:16:51.405Z,97862.68
2023-12-23T19:19:22.638Z,97871.47
2023-12-23T19:21:54.000Z,97878.24
2023-12-23T19:24:25.064Z,97887.52
2023-12-23T19:26:56.528Z,97888.38
2023-12-23T19:29:27.749Z,97889.61
2023-12-23T19:31:58.859Z,97887.55
2023-12-23T19:34:30.472Z,97888.61
2023-12-23T19:37:02.429Z,97898.69
2023-12-23T19:39:33.576Z,97899.74
2023-12-23T19:42:06.359Z,97900.37
2023-12-23T19:44:37.591Z,97906.81
2023-12-23T19:47:10.653Z,97907.60
2023-12-23T19:49:43.838Z,97907.63
2023-12-23T19:52:15.128Z,97906.36
2023-12-23T19:54:45.921Z,97909.73
2023-12-23T19:57:17.259Z,97909.99
2023-12-23T19:59:48.675Z,97915.11
2023-12-23T20:02:20.712Z,97918.71
2023-12-23T20:04:51.916Z,97919.80
2023-12-23T20:07:23.673Z,97919.14
2023-12-23T20:09:55.126Z,97916.69
2023-12-23T20:12:26.284Z,97921.34
2023-12-23T20:14:57.354Z,97925.54
2023-12-23T20:17:28.578Z,97927.61
2023-12-23T20:19:59.703Z,97925.88
2023-12-23T20:22:31.021Z,97926.45
2023-12-23T20:25:02.158Z,97930.48
2023-12-23T20:27:33.314Z,97929.95
2023-12-23T20:30:04.918Z,97934.98
2023-12-23T20:32:37.394Z,97931.66
2023-12-23T20:35:09.949Z,97937.58
2023-12-23T20:37:41.307Z,97937.95
2023-12-23T20:40:14.728Z,97940.54
2023-12-23T20:42:46.274Z,97938.10
2023-12-23T20:45:17.442Z,97939.48
2023-12-23T20:47:48.818Z,97935.88
2023-12-23T20:50:21.145Z,97934.64
2023-12-23T20:52:53.230Z,97938.45
2023-12-23T20:55:24.777Z,97940.98
2023-12-23T20:57:55.883Z,97942.48
2023-12-23T21:00:27.364Z,97942.05
2023-12-23T21:02:58.730Z,97938.41
2023-12-23T21:05:30.256Z,97943.06
2023-12-23T21:08:02.486Z,97938.33
2023-12-23T21:10:37.229Z,97947.59
2023-12-23T21:13:09.865Z,97944.01
2023-12-23T21:15:41.111Z,97947.44
2023-12-23T21:18:12.742Z,97945.21
2023-12-23T21:20:44.015Z,97947.31
2023-12-23T21:23:15.563Z,97950.05
2023-12-23T21:25:47.684Z,97951.04
2023-12-23T21:28:24.618Z,97947.10
2023-12-23T21:30:56.577Z,97946.60
2023-12-23T21:33:29.056Z,97949.77
2023-12-23T21:36:00.288Z,97953.13
2023-12-23T21:38:31.490Z,97958.25
2023-12-23T21:41:02.643Z,97958.02
2023-12-23T21:43:34.270Z,97958.67
2023-12-23T21:46:05.235Z,97954.84
2023-12-23T21:48:37.057Z,97953.19
2023-12-23T21:51:08.984Z,97950.20
2023-12-23T21:53:40.312Z,97954.31
2023-12-23T21:56:13.207Z,97954.60
2023-12-23T21:58:44.256Z,97957.26
2023-12-23T22:01:18.142Z,97956.86
2023-12-23T22:03:47.687Z,97960.27
2023-12-23T22:06:20.004Z,97958.95
2023-12-23T22:08:52.177Z,97964.92
2023-12-23T22:11:25.569Z,97968.17
2023-12-23T22:13:56.863Z,97974.30
2023-12-23T22:16:27.927Z,97979.63
2023-12-23T22:18:58.761Z,97983.39
2023-12-23T22:21:29.751Z,97983.55
2023-12-23T22:24:00.584Z,97989.58
2023-12-23T22:26:32.198Z,97996.06
2023-12-23T22:29:03.162Z,97994.91
2023-12-23T22:31:34.334Z,97998.70
2023-12-23T22:34:05.854Z,98000.19
2023-12-23T22:36:36.729Z,97999.79
2023-12-23T22:39:07.794Z,97996.16
2023-12-23T22:41:38.883Z,97993.90
2023-12-23T22:44:09.694Z,97990.02
2023-12-23T22:46:40.717Z,97992.05
2023-12-23T22:49:11.740Z,97993.60
2023-12-23T22:51:43.867Z,97993.23
2023-12-23T22:54:14.864Z,97990.18
2023-12-23T22:56:46.053Z,97985.77
2023-12-23T22:59:16.872Z,97988.25
2023-12-23T23:01:47.904Z,97995.08
2023-12-23T23:04:19.152Z,97993.80
2023-12-23T23:06:50.311Z,97993.41
2023-12-23T23:09:23.044Z,97988.86
2023-12-23T23:11:54.023Z,97992.56
2023-12-23T23:14:25.184Z,97987.77
2023-12-23T23:16:57.157Z,97992.71
2023-12-23T23:19:28.121Z,97989.02
2023-12-23T23:21:59.533Z,97986.31
2023-12-23T23:24:31.002Z,97988.53
2023-12-23T23:27:01.768Z,97985.33
2023-12-23T23:29:33.950Z,97985.08
2023-12-23T23:32:05.461Z,97985.89
2023-12-23T23:34:36.200Z,97982.63
2023-12-23T23:37:07.278Z,97983.32
2023-12-23T23:39:38.069Z,97978.04
2023-12-23T23:42:09.113Z,97978.65
2023-12-23T23:44:40.479Z,97976.23
2023-12-23T23:47:11.554Z,97981.69
2023-12-23T23:49:43.027Z,97990.42
2023-12-23T23:52:14.059Z,97986.44
2023-12-23T23:54:45.066Z,97985.91
2023-12-23T23:57:17.560Z,97983.73
2023-12-23T23:59:48.492Z,97986.98
